map of NRN home
NRN - Airport
Location
City:  Niederrhein, North Rhine-Westphalia, Germany
Near (Alt.):Düsseldorf
Name:Weeze Airport
Old (Alt.):Niederrhein Airport, RAF Laarbruch
ICAO:EDLV
IATA:NRN

Details
Type:Airport (Flugplatz, Airfield)
Use:Public/Civil, International (customs port of entry)
Latitude:51°36'09"N (51.602414)
Longitude:6°08'32"E (6.142172)
Datum:WGS 1984
Elevation:106 ft (32 m)
Variation:1.94°E (WMM2015v2 magnetic declination)
0.18° annual change
Runways:1
Longest:8005 × 148 ft (2440 × 45 m), paved

Time
Time Zone:UTC+1 (DST+2)
Local Time:

Weather
METAR:EDLV 041350Z 21012KT CAVOK 05/M01 Q1024
TAF:EDLV 041100Z 0412/0512 18012KT CAVOK PROB30
TEMPO 0422/0511 BKN014
BECMG 0501/0504 21006KT PROB30
TEMPO 0503/0508 4000 BR

Related Locations
Nearby:
Farthest:CHT: 11879 mi / 19117 km
Waitangi [Tuuta], CIT, NZ

Find:

   beyond  
but within

Other Information
Maps:
NOTAMs:
Links:
Sources:

  
  • flag of Germany
  • flag of North Rhine-Westphalia
  

Sectional Chart

Flight Planning
at skyvector.com

Satellite Image

Google Maps Satellite view

 

Copyright © 2004-2019 Karl L. Swartz. All rights reserved.
The Great Circle Mapper name and logo are trademarks of the Great Circle Mapper.
All other trademarks mentioned herein belong to their respective owners.
Please see credits for attibutions and further copyright information.

  Follow gcmap on Facebook Follow gcmap on Twitter GCmap on LinkedIn

hCard Microformat

Geo Microformat